AirNav   Bose Proflight Series 2 Wireless Aviation Headset
 
 896 users online  

MO41 Landing Pad
Troy, Missouri, USA

GOING TO TROY?


FAA INFORMATION EFFECTIVE 07 NOVEMBER 2019

Location

FAA Identifier: MO41
Lat/Long: 38-58-55.6700N 090-57-47.1100W
38-58.927833N 090-57.785167W
38.9821306,-90.9630861
(estimated)
Elevation: 520 ft. / 158 m (estimated)
Variation: 01E (1995)
Time zone: UTC -6 (UTC -5 during Daylight Saving Time)
Zip code: 63379

Heliport Operations

Heliport use: Private use, MEDICAL USE.
Activation date: 10/1997
Control tower: no
ARTCC: KANSAS CITY CENTER
FSS: SAINT LOUIS FLIGHT SERVICE STATION
Attendance: CONTINUOUS
Wind indicator: yes
Segmented circle: no
Lights: FOR PERIMETER AND FLOOD LGTS CALL 314-528-8551.

Nearby radio navigation aids

VOR radial/distance  VOR name  Freq  Var
FTZr356/17.3FORISTELL VORTAC110.8005E
STLr287/23.6ST LOUIS VORTAC117.4001E

Heliport Services

Runway Information

Helipad H1

Dimensions: 50 x 50 ft. / 15 x 15 m
Surface: concrete
Runway edge lights: PERI
INGROUND GREEN LED LGTS AND FLOOD LGTS.
Latitude: 38-58.927833N
Longitude: 090-57.785167W
Elevation: 520.0 ft.
Traffic pattern: leftleft

Heliport Ownership and Management from official FAA records

Ownership: Privately-owned
Owner: LINCOLN COUNTY MEMORIAL HOSP.
1000 EAST CHERRY STREET
TROY, MO 63379
Phone 314-528-8551
Manager: ED JACQUIN.
1000 EAST CHERRY STREET
TROY, MO 63379
Phone 314-528-8551

Additional Remarks

OWNER DESIRES HELIPORT NOT BE CHARTED.
FOR CD CTC ST LOUIS APCH AT 314-890-1018.

Instrument Procedures

There are no published instrument procedures at MO41.

Some nearby airports with instrument procedures:

KFYG - Washington Regional Airport (24 nm S)
KSUS - Spirit of St Louis Airport (24 nm SE)
KSET - St Charles County Smartt Airport (25 nm E)
H19 - Bowling Green Municipal Airport (26 nm NW)
1H0 - Creve Coeur Airport (26 nm SE)
 
Loc | Ops | Rwys | IFR | FBO | Links
Com | Nav | Svcs | Stats | Notes

Kansas City Aviation Department
 
Area around MO41 (Landing Pad)
 
Road maps at: MapQuest Bing Google
 
Aerial photo
No photo
 
Sectional chart

 
Airport distance calculator
Flying to Landing Pad? Find the distance to fly.

From to MO41

Sunrise and sunset
Times for 14-Nov-2019
 Local
(UTC-6)
 Zulu
(UTC)
Morning civil twilight06:1812:18
Sunrise06:4712:47
Sunset16:5022:50
Evening civil twilight17:1823:18

Current date and time
Zulu (UTC)  15-Nov-2019 00:13:15
Local (UTC-6)  14-Nov-2019 18:13:15
 
METAR
KFYG 
24nm S 
142355Z AUTO 00000KT 10SM CLR 02/M04 A3034 RMK AO2
KSUS 
25nm SE 
142354Z 00000KT 10SM CLR 01/M03 A3034 RMK AO2 SLP283 T00061033 10072 20006 53016
KSET 
25nm E 
142354Z AUTO A3035 RMK AO2 SLPNO 53017 PWINO FZRANO $
KSTL 
31nm SE 
142351Z 32004KT 10SM CLR 02/M03 A3035 RMK AO2 SLP286 T00221033 10061 20022 53015
KPPQ 
40nm N 
142355Z AUTO 00000KT 10SM CLR 00/M04 A3036 RMK AO2 T10041037 10036 21011
KMYJ 
41nm W 
142335Z AUTO 30004KT 10SM CLR 01/M03 A3032 RMK AO2
KALN 
44nm E 
142350Z 00000KT 10SM FEW040 00/M02 A3035
KCPS 
45nm SE 
142353Z 35003KT 10SM CLR 01/M03 A3035 RMK AO2 SLP282 T00111033 10061 20011 53018
TAF
KSUS 
25nm SE 
141737Z 1418/1518 32008KT P6SM FEW025 SCT060 FM150100 VRB04KT P6SM FEW250 FM150900 VRB04KT 6SM BR SKC FM151400 28004KT P6SM FEW200
NOTAMs
Click for the latest NOTAMs
NOTAMs are issued by the DoD/FAA and will open in a separate window not controlled by AirNav.

 

 
 

Would you like to see your business listed on this page?

 If your business provides an interesting product or service to pilots, flight crews, aircraft, or users of the Landing Pad, you should consider listing it here.  To start the listing process, click on the button below
 
Add a business
 

Other Pages about Landing Pad

Update a link
 
Copyright © AirNav, LLC. All rights reserved. Privacy Policy  Contact